UKKK/IEV METAR and TAF weather

Enter ICAO airport designator
Station Type Date Time Source
UKKK METAR 2022/02/26 15:00 UTC NOAA

UKKK 261500Z 36004MPS 320V030 9999 -RA NSC 06/M05 Q1026 NOSIG


Station Type Date Time Source
UKKK Decoded METAR 2022/02/26 15:00 UTC NOAA

Kyiv, Ukraine (UKKK) 50-24N 030-34E 167M
Feb 26, 2022 - 10:00 AM EST / 2022.02.26 1500 UTC
Wind: from the N (360 degrees) at 9 MPH (8 KT) (direction variable):0
Visibility: greater than 7 mile(s):0
Weather: light rain
Temperature: 42 F (6 C)
Dew Point: 23 F (-5 C)
Relative Humidity: 45%
Pressure (altimeter): 30.30 in. Hg (1026 hPa)
ob: UKKK 261500Z 36004MPS 320V030 9999 -RA NSC 06/M05 Q1026 NOSIG
cycle: 15

Station Type Date Time Source
UKKK TAF 2022/02/23 18:09 UTC NOAA

TAF UKKK 231705Z 2318/2418 21003MPS 6000 BKN007 TX05/2412Z TN01/2405Z
TEMPO 2318/2406 1000 -SHRASN BR BKN003 SCT012CB
BECMG 2400/2402 28003MPS
BECMG 2407/2409 BKN015

Example: see airport list